sensor_id;sensor_type;location;lat;lon;timestamp;P1;durP1;ratioP1;P2;durP2;ratioP2
14799;SDS011;7491;57.750;11.970;2022-07-04T00:01:51;8.30;;;7.45;;
14799;SDS011;7491;57.750;11.970;2022-07-04T00:04:29;8.65;;;7.68;;
14799;SDS011;7491;57.750;11.970;2022-07-04T00:06:56;9.95;;;8.88;;
14799;SDS011;7491;57.750;11.970;2022-07-04T00:09:24;7.90;;;7.25;;
14799;SDS011;7491;57.750;11.970;2022-07-04T00:11:51;9.48;;;8.00;;
14799;SDS011;7491;57.750;11.970;2022-07-04T00:14:17;9.98;;;9.05;;
14799;SDS011;7491;57.750;11.970;2022-07-04T00:16:44;13.38;;;9.77;;
14799;SDS011;7491;57.750;11.970;2022-07-04T00:19:11;10.30;;;9.13;;
14799;SDS011;7491;57.750;11.970;2022-07-04T00:21:38;11.02;;;8.70;;
14799;SDS011;7491;57.750;11.970;2022-07-04T00:24:09;10.27;;;9.38;;
14799;SDS011;7491;57.750;11.970;2022-07-04T00:26:37;11.75;;;9.65;;
14799;SDS011;7491;57.750;11.970;2022-07-04T00:29:04;11.18;;;9.32;;
14799;SDS011;7491;57.750;11.970;2022-07-04T00:31:34;11.77;;;10.35;;
14799;SDS011;7491;57.750;11.970;2022-07-04T00:34:01;11.88;;;10.35;;
14799;SDS011;7491;57.750;11.970;2022-07-04T00:36:28;15.55;;;9.77;;
14799;SDS011;7491;57.750;11.970;2022-07-04T00:38:55;14.70;;;7.28;;
14799;SDS011;7491;57.750;11.970;2022-07-04T00:41:21;11.18;;;5.40;;
14799;SDS011;7491;57.750;11.970;2022-07-04T00:44:00;8.02;;;3.95;;
14799;SDS011;7491;57.750;11.970;2022-07-04T00:46:31;9.00;;;3.78;;
14799;SDS011;7491;57.750;11.970;2022-07-04T00:48:59;5.97;;;3.03;;
14799;SDS011;7491;57.750;11.970;2022-07-04T00:51:26;8.98;;;3.30;;
14799;SDS011;7491;57.750;11.970;2022-07-04T00:53:53;12.05;;;3.38;;
14799;SDS011;7491;57.750;11.970;2022-07-04T00:56:21;9.98;;;3.13;;
14799;SDS011;7491;57.750;11.970;2022-07-04T00:58:48;12.52;;;3.75;;
14799;SDS011;7491;57.750;11.970;2022-07-04T01:01:17;14.00;;;3.42;;
14799;SDS011;7491;57.750;11.970;2022-07-04T01:03:44;13.82;;;4.18;;
14799;SDS011;7491;57.750;11.970;2022-07-04T01:06:11;10.88;;;3.38;;
14799;SDS011;7491;57.750;11.970;2022-07-04T01:08:38;9.65;;;3.03;;
14799;SDS011;7491;57.750;11.970;2022-07-04T01:11:06;10.73;;;2.80;;
14799;SDS011;7491;57.750;11.970;2022-07-04T01:13:33;12.07;;;3.03;;
14799;SDS011;7491;57.750;11.970;2022-07-04T01:16:01;18.45;;;3.55;;
14799;SDS011;7491;57.750;11.970;2022-07-04T01:18:30;13.63;;;3.00;;
14799;SDS011;7491;57.750;11.970;2022-07-04T01:20:58;14.60;;;3.13;;
14799;SDS011;7491;57.750;11.970;2022-07-04T01:23:25;19.63;;;2.95;;
14799;SDS011;7491;57.750;11.970;2022-07-04T01:25:52;11.98;;;2.90;;
14799;SDS011;7491;57.750;11.970;2022-07-04T01:28:19;16.50;;;3.20;;
14799;SDS011;7491;57.750;11.970;2022-07-04T01:30:47;17.85;;;2.97;;
14799;SDS011;7491;57.750;11.970;2022-07-04T01:33:14;12.10;;;2.80;;
14799;SDS011;7491;57.750;11.970;2022-07-04T01:35:45;11.85;;;2.47;;
14799;SDS011;7491;57.750;11.970;2022-07-04T01:38:14;12.30;;;2.75;;
14799;SDS011;7491;57.750;11.970;2022-07-04T01:40:41;12.32;;;2.78;;
14799;SDS011;7491;57.750;11.970;2022-07-04T01:43:08;9.65;;;2.20;;
14799;SDS011;7491;57.750;11.970;2022-07-04T01:45:35;9.75;;;2.13;;
14799;SDS011;7491;57.750;11.970;2022-07-04T01:48:03;9.82;;;2.40;;
14799;SDS011;7491;57.750;11.970;2022-07-04T01:50:30;9.20;;;1.95;;
14799;SDS011;7491;57.750;11.970;2022-07-04T01:52:57;8.38;;;2.20;;
14799;SDS011;7491;57.750;11.970;2022-07-04T01:55:27;9.27;;;2.05;;
14799;SDS011;7491;57.750;11.970;2022-07-04T01:57:55;8.15;;;2.83;;
14799;SDS011;7491;57.750;11.970;2022-07-04T02:00:22;16.90;;;2.40;;
14799;SDS011;7491;57.750;11.970;2022-07-04T02:03:07;10.68;;;2.40;;
14799;SDS011;7491;57.750;11.970;2022-07-04T02:05:35;14.05;;;2.92;;
14799;SDS011;7491;57.750;11.970;2022-07-04T02:08:03;13.13;;;2.78;;
14799;SDS011;7491;57.750;11.970;2022-07-04T02:10:31;16.52;;;2.90;;
14799;SDS011;7491;57.750;11.970;2022-07-04T02:12:59;12.57;;;2.65;;
14799;SDS011;7491;57.750;11.970;2022-07-04T02:15:29;10.70;;;2.20;;
14799;SDS011;7491;57.750;11.970;2022-07-04T02:17:58;10.73;;;2.45;;
14799;SDS011;7491;57.750;11.970;2022-07-04T02:20:26;7.40;;;2.30;;
14799;SDS011;7491;57.750;11.970;2022-07-04T02:22:53;8.57;;;1.75;;
14799;SDS011;7491;57.750;11.970;2022-07-04T02:25:20;6.78;;;2.03;;
14799;SDS011;7491;57.750;11.970;2022-07-04T02:27:48;8.60;;;2.03;;
14799;SDS011;7491;57.750;11.970;2022-07-04T02:30:15;9.25;;;1.95;;
14799;SDS011;7491;57.750;11.970;2022-07-04T02:32:42;8.93;;;2.45;;
14799;SDS011;7491;57.750;11.970;2022-07-04T02:35:09;8.77;;;2.22;;
14799;SDS011;7491;57.750;11.970;2022-07-04T02:37:39;6.72;;;1.83;;
14799;SDS011;7491;57.750;11.970;2022-07-04T02:40:06;5.82;;;1.98;;
14799;SDS011;7491;57.750;11.970;2022-07-04T02:42:34;3.63;;;1.80;;
14799;SDS011;7491;57.750;11.970;2022-07-04T02:45:04;8.93;;;2.03;;
14799;SDS011;7491;57.750;11.970;2022-07-04T02:47:31;6.38;;;1.83;;
14799;SDS011;7491;57.750;11.970;2022-07-04T02:49:59;8.18;;;2.20;;
14799;SDS011;7491;57.750;11.970;2022-07-04T02:52:28;5.57;;;1.90;;
14799;SDS011;7491;57.750;11.970;2022-07-04T02:54:55;5.63;;;2.17;;
14799;SDS011;7491;57.750;11.970;2022-07-04T02:57:21;8.10;;;2.20;;
14799;SDS011;7491;57.750;11.970;2022-07-04T02:59:48;7.32;;;2.03;;
14799;SDS011;7491;57.750;11.970;2022-07-04T03:02:16;9.20;;;2.75;;
14799;SDS011;7491;57.750;11.970;2022-07-04T03:04:43;6.72;;;2.20;;
14799;SDS011;7491;57.750;11.970;2022-07-04T03:07:10;10.90;;;2.40;;
14799;SDS011;7491;57.750;11.970;2022-07-04T03:09:37;8.25;;;2.08;;
14799;SDS011;7491;57.750;11.970;2022-07-04T03:12:04;10.70;;;2.53;;
14799;SDS011;7491;57.750;11.970;2022-07-04T03:14:31;7.53;;;2.47;;
14799;SDS011;7491;57.750;11.970;2022-07-04T03:16:58;6.60;;;2.15;;
14799;SDS011;7491;57.750;11.970;2022-07-04T03:19:26;3.63;;;1.90;;
14799;SDS011;7491;57.750;11.970;2022-07-04T03:21:53;6.55;;;2.25;;
14799;SDS011;7491;57.750;11.970;2022-07-04T03:24:22;9.57;;;2.25;;
14799;SDS011;7491;57.750;11.970;2022-07-04T03:26:49;6.22;;;2.22;;
14799;SDS011;7491;57.750;11.970;2022-07-04T03:29:16;5.18;;;2.13;;
14799;SDS011;7491;57.750;11.970;2022-07-04T03:31:42;6.45;;;2.50;;
14799;SDS011;7491;57.750;11.970;2022-07-04T03:34:09;8.27;;;2.38;;
14799;SDS011;7491;57.750;11.970;2022-07-04T03:36:38;9.07;;;2.70;;
14799;SDS011;7491;57.750;11.970;2022-07-04T03:39:05;10.38;;;2.55;;
14799;SDS011;7491;57.750;11.970;2022-07-04T03:41:32;7.47;;;2.10;;
14799;SDS011;7491;57.750;11.970;2022-07-04T03:43:58;4.38;;;2.58;;
14799;SDS011;7491;57.750;11.970;2022-07-04T03:46:25;3.78;;;2.45;;
14799;SDS011;7491;57.750;11.970;2022-07-04T03:48:52;7.10;;;2.33;;
14799;SDS011;7491;57.750;11.970;2022-07-04T03:51:19;7.70;;;2.70;;
14799;SDS011;7491;57.750;11.970;2022-07-04T03:53:49;6.43;;;2.40;;
14799;SDS011;7491;57.750;11.970;2022-07-04T03:56:16;9.68;;;2.20;;
14799;SDS011;7491;57.750;11.970;2022-07-04T03:58:43;4.20;;;2.20;;
14799;SDS011;7491;57.750;11.970;2022-07-04T04:01:13;4.03;;;2.50;;
14799;SDS011;7491;57.750;11.970;2022-07-04T04:03:42;6.95;;;2.63;;
14799;SDS011;7491;57.750;11.970;2022-07-04T04:06:27;5.55;;;2.05;;
14799;SDS011;7491;57.750;11.970;2022-07-04T04:08:56;6.43;;;2.30;;
14799;SDS011;7491;57.750;11.970;2022-07-04T04:11:23;5.00;;;2.35;;
14799;SDS011;7491;57.750;11.970;2022-07-04T04:13:50;6.72;;;2.20;;
14799;SDS011;7491;57.750;11.970;2022-07-04T04:16:16;3.78;;;1.80;;
14799;SDS011;7491;57.750;11.970;2022-07-04T04:18:43;7.47;;;1.95;;
14799;SDS011;7491;57.750;11.970;2022-07-04T04:21:10;5.78;;;2.35;;
14799;SDS011;7491;57.750;11.970;2022-07-04T04:23:36;5.00;;;2.20;;
14799;SDS011;7491;57.750;11.970;2022-07-04T04:26:04;9.75;;;2.28;;
14799;SDS011;7491;57.750;11.970;2022-07-04T04:28:31;5.10;;;2.00;;
14799;SDS011;7491;57.750;11.970;2022-07-04T04:30:58;5.38;;;2.10;;
14799;SDS011;7491;57.750;11.970;2022-07-04T04:33:25;3.85;;;2.00;;
14799;SDS011;7491;57.750;11.970;2022-07-04T04:35:51;4.40;;;2.50;;
14799;SDS011;7491;57.750;11.970;2022-07-04T04:38:18;7.07;;;2.70;;
14799;SDS011;7491;57.750;11.970;2022-07-04T04:40:45;8.15;;;2.88;;
14799;SDS011;7491;57.750;11.970;2022-07-04T04:43:13;7.15;;;2.63;;
14799;SDS011;7491;57.750;11.970;2022-07-04T04:45:39;10.70;;;2.78;;
14799;SDS011;7491;57.750;11.970;2022-07-04T04:48:06;8.50;;;3.25;;
14799;SDS011;7491;57.750;11.970;2022-07-04T04:50:33;7.53;;;2.75;;
14799;SDS011;7491;57.750;11.970;2022-07-04T04:53:00;5.78;;;3.20;;
14799;SDS011;7491;57.750;11.970;2022-07-04T04:55:27;9.23;;;3.40;;
14799;SDS011;7491;57.750;11.970;2022-07-04T04:57:53;8.23;;;3.42;;
14799;SDS011;7491;57.750;11.970;2022-07-04T05:00:21;9.07;;;3.35;;
14799;SDS011;7491;57.750;11.970;2022-07-04T05:02:48;6.28;;;2.95;;
14799;SDS011;7491;57.750;11.970;2022-07-04T05:05:15;9.73;;;3.05;;
14799;SDS011;7491;57.750;11.970;2022-07-04T05:07:43;6.32;;;2.80;;
14799;SDS011;7491;57.750;11.970;2022-07-04T05:10:10;8.05;;;2.60;;
14799;SDS011;7491;57.750;11.970;2022-07-04T05:12:37;7.38;;;3.20;;
14799;SDS011;7491;57.750;11.970;2022-07-04T05:15:04;8.43;;;3.00;;
14799;SDS011;7491;57.750;11.970;2022-07-04T05:17:32;11.48;;;2.88;;
14799;SDS011;7491;57.750;11.970;2022-07-04T05:19:59;7.60;;;2.90;;
14799;SDS011;7491;57.750;11.970;2022-07-04T05:22:26;6.97;;;3.10;;
14799;SDS011;7491;57.750;11.970;2022-07-04T05:24:52;7.82;;;3.13;;
14799;SDS011;7491;57.750;11.970;2022-07-04T05:27:19;8.82;;;3.00;;
14799;SDS011;7491;57.750;11.970;2022-07-04T05:29:46;8.20;;;2.83;;
14799;SDS011;7491;57.750;11.970;2022-07-04T05:32:13;6.47;;;2.70;;
14799;SDS011;7491;57.750;11.970;2022-07-04T05:34:41;9.23;;;3.30;;
14799;SDS011;7491;57.750;11.970;2022-07-04T05:37:08;5.63;;;3.15;;
14799;SDS011;7491;57.750;11.970;2022-07-04T05:39:35;11.40;;;3.30;;
14799;SDS011;7491;57.750;11.970;2022-07-04T05:42:01;6.68;;;2.58;;
14799;SDS011;7491;57.750;11.970;2022-07-04T05:44:28;10.02;;;3.17;;
14799;SDS011;7491;57.750;11.970;2022-07-04T05:46:55;6.05;;;2.38;;
14799;SDS011;7491;57.750;11.970;2022-07-04T05:49:21;11.80;;;2.53;;
14799;SDS011;7491;57.750;11.970;2022-07-04T05:51:50;6.78;;;2.75;;
14799;SDS011;7491;57.750;11.970;2022-07-04T05:54:16;6.45;;;2.50;;
14799;SDS011;7491;57.750;11.970;2022-07-04T05:56:43;7.00;;;2.60;;
14799;SDS011;7491;57.750;11.970;2022-07-04T05:59:10;10.00;;;2.30;;
14799;SDS011;7491;57.750;11.970;2022-07-04T06:01:37;3.70;;;2.80;;
14799;SDS011;7491;57.750;11.970;2022-07-04T06:04:04;7.88;;;2.30;;
14799;SDS011;7491;57.750;11.970;2022-07-04T06:06:31;5.40;;;2.00;;
14799;SDS011;7491;57.750;11.970;2022-07-04T06:09:00;6.60;;;2.28;;
14799;SDS011;7491;57.750;11.970;2022-07-04T06:11:28;7.88;;;2.88;;
14799;SDS011;7491;57.750;11.970;2022-07-04T06:13:55;6.88;;;2.28;;
14799;SDS011;7491;57.750;11.970;2022-07-04T06:16:23;6.68;;;2.60;;
14799;SDS011;7491;57.750;11.970;2022-07-04T06:18:49;7.00;;;2.38;;
14799;SDS011;7491;57.750;11.970;2022-07-04T06:21:16;5.00;;;2.28;;
14799;SDS011;7491;57.750;11.970;2022-07-04T06:23:43;5.13;;;2.15;;
14799;SDS011;7491;57.750;11.970;2022-07-04T06:26:13;6.20;;;2.10;;
14799;SDS011;7491;57.750;11.970;2022-07-04T06:28:40;6.15;;;2.00;;
14799;SDS011;7491;57.750;11.970;2022-07-04T06:31:06;5.13;;;1.80;;
14799;SDS011;7491;57.750;11.970;2022-07-04T06:33:33;5.32;;;1.80;;
14799;SDS011;7491;57.750;11.970;2022-07-04T06:36:21;4.38;;;1.60;;
14799;SDS011;7491;57.750;11.970;2022-07-04T06:38:47;3.92;;;1.77;;
14799;SDS011;7491;57.750;11.970;2022-07-04T06:41:15;3.40;;;1.80;;
14799;SDS011;7491;57.750;11.970;2022-07-04T06:43:42;2.63;;;1.38;;
14799;SDS011;7491;57.750;11.970;2022-07-04T06:46:09;8.20;;;1.50;;
14799;SDS011;7491;57.750;11.970;2022-07-04T06:48:35;7.15;;;1.52;;
14799;SDS011;7491;57.750;11.970;2022-07-04T06:51:02;4.32;;;1.90;;
14799;SDS011;7491;57.750;11.970;2022-07-04T06:53:29;3.60;;;1.33;;
14799;SDS011;7491;57.750;11.970;2022-07-04T06:55:56;3.95;;;1.42;;
14799;SDS011;7491;57.750;11.970;2022-07-04T06:58:24;4.03;;;1.40;;
14799;SDS011;7491;57.750;11.970;2022-07-04T07:00:51;3.72;;;1.50;;
14799;SDS011;7491;57.750;11.970;2022-07-04T07:03:18;3.83;;;1.45;;
14799;SDS011;7491;57.750;11.970;2022-07-04T07:05:45;4.45;;;1.92;;
14799;SDS011;7491;57.750;11.970;2022-07-04T07:08:12;4.30;;;1.60;;
14799;SDS011;7491;57.750;11.970;2022-07-04T07:10:39;2.58;;;1.20;;
14799;SDS011;7491;57.750;11.970;2022-07-04T07:13:06;5.65;;;1.50;;
14799;SDS011;7491;57.750;11.970;2022-07-04T07:15:35;7.35;;;1.40;;
14799;SDS011;7491;57.750;11.970;2022-07-04T07:18:02;4.10;;;1.55;;
14799;SDS011;7491;57.750;11.970;2022-07-04T07:20:29;2.60;;;1.50;;
14799;SDS011;7491;57.750;11.970;2022-07-04T07:22:56;3.72;;;1.10;;
14799;SDS011;7491;57.750;11.970;2022-07-04T07:25:22;4.03;;;1.40;;
14799;SDS011;7491;57.750;11.970;2022-07-04T07:27:49;5.28;;;1.30;;
14799;SDS011;7491;57.750;11.970;2022-07-04T07:30:16;6.65;;;1.50;;
14799;SDS011;7491;57.750;11.970;2022-07-04T07:32:44;7.05;;;1.30;;
14799;SDS011;7491;57.750;11.970;2022-07-04T07:35:11;4.35;;;1.30;;
14799;SDS011;7491;57.750;11.970;2022-07-04T07:37:38;4.43;;;1.10;;
14799;SDS011;7491;57.750;11.970;2022-07-04T07:40:05;2.47;;;1.10;;
14799;SDS011;7491;57.750;11.970;2022-07-04T07:42:34;5.00;;;1.27;;
14799;SDS011;7491;57.750;11.970;2022-07-04T07:45:01;3.75;;;1.10;;
14799;SDS011;7491;57.750;11.970;2022-07-04T07:47:28;3.10;;;1.23;;
14799;SDS011;7491;57.750;11.970;2022-07-04T07:49:56;4.43;;;1.70;;
14799;SDS011;7491;57.750;11.970;2022-07-04T07:52:23;3.45;;;0.90;;
14799;SDS011;7491;57.750;11.970;2022-07-04T07:54:50;2.72;;;1.20;;
14799;SDS011;7491;57.750;11.970;2022-07-04T07:57:16;3.65;;;0.90;;
14799;SDS011;7491;57.750;11.970;2022-07-04T07:59:43;4.30;;;1.00;;
14799;SDS011;7491;57.750;11.970;2022-07-04T08:02:10;3.88;;;1.23;;
14799;SDS011;7491;57.750;11.970;2022-07-04T08:04:37;3.53;;;1.27;;
14799;SDS011;7491;57.750;11.970;2022-07-04T08:07:05;1.30;;;0.73;;
14799;SDS011;7491;57.750;11.970;2022-07-04T08:09:34;2.38;;;1.27;;
14799;SDS011;7491;57.750;11.970;2022-07-04T08:12:02;4.68;;;1.15;;
14799;SDS011;7491;57.750;11.970;2022-07-04T08:14:30;3.15;;;0.98;;
14799;SDS011;7491;57.750;11.970;2022-07-04T08:16:58;4.03;;;1.10;;
14799;SDS011;7491;57.750;11.970;2022-07-04T08:19:25;4.32;;;1.30;;
14799;SDS011;7491;57.750;11.970;2022-07-04T08:21:53;2.97;;;1.00;;
14799;SDS011;7491;57.750;11.970;2022-07-04T08:24:21;4.97;;;1.27;;
14799;SDS011;7491;57.750;11.970;2022-07-04T08:26:48;3.08;;;0.98;;
14799;SDS011;7491;57.750;11.970;2022-07-04T08:29:16;2.97;;;0.80;;
14799;SDS011;7491;57.750;11.970;2022-07-04T08:31:43;2.78;;;0.88;;
14799;SDS011;7491;57.750;11.970;2022-07-04T08:34:10;3.08;;;1.10;;
14799;SDS011;7491;57.750;11.970;2022-07-04T08:36:37;2.20;;;0.80;;
14799;SDS011;7491;57.750;11.970;2022-07-04T08:39:03;3.60;;;0.85;;
14799;SDS011;7491;57.750;11.970;2022-07-04T08:41:33;2.55;;;1.10;;
14799;SDS011;7491;57.750;11.970;2022-07-04T08:44:03;2.92;;;0.70;;
14799;SDS011;7491;57.750;11.970;2022-07-04T08:46:32;1.73;;;0.90;;
14799;SDS011;7491;57.750;11.970;2022-07-04T08:49:01;2.03;;;0.90;;
14799;SDS011;7491;57.750;11.970;2022-07-04T08:51:37;5.45;;;1.13;;
14799;SDS011;7491;57.750;11.970;2022-07-04T08:54:10;3.55;;;0.82;;
14799;SDS011;7491;57.750;11.970;2022-07-04T08:56:54;1.90;;;1.05;;
14799;SDS011;7491;57.750;11.970;2022-07-04T08:59:39;6.53;;;0.95;;
14799;SDS011;7491;57.750;11.970;2022-07-04T09:02:10;4.03;;;1.13;;
14799;SDS011;7491;57.750;11.970;2022-07-04T09:04:39;3.60;;;1.50;;
14799;SDS011;7491;57.750;11.970;2022-07-04T09:07:09;5.82;;;1.10;;
14799;SDS011;7491;57.750;11.970;2022-07-04T09:09:37;2.20;;;1.00;;
14799;SDS011;7491;57.750;11.970;2022-07-04T09:12:06;3.42;;;1.00;;
14799;SDS011;7491;57.750;11.970;2022-07-04T09:14:34;4.88;;;1.00;;
14799;SDS011;7491;57.750;11.970;2022-07-04T09:17:01;1.23;;;0.70;;
14799;SDS011;7491;57.750;11.970;2022-07-04T09:19:28;3.53;;;0.90;;
14799;SDS011;7491;57.750;11.970;2022-07-04T09:21:55;5.43;;;1.00;;
14799;SDS011;7491;57.750;11.970;2022-07-04T09:29:58;3.15;;;0.90;;
14799;SDS011;7491;57.750;11.970;2022-07-04T09:32:35;1.65;;;0.70;;
14799;SDS011;7491;57.750;11.970;2022-07-04T09:35:04;4.22;;;1.10;;
14799;SDS011;7491;57.750;11.970;2022-07-04T09:37:36;2.65;;;1.20;;
14799;SDS011;7491;57.750;11.970;2022-07-04T09:40:05;5.32;;;1.20;;
14799;SDS011;7491;57.750;11.970;2022-07-04T09:42:38;2.33;;;1.13;;
14799;SDS011;7491;57.750;11.970;2022-07-04T09:45:06;4.03;;;1.00;;
14799;SDS011;7491;57.750;11.970;2022-07-04T09:47:35;3.63;;;1.00;;
14799;SDS011;7491;57.750;11.970;2022-07-04T09:50:03;1.65;;;0.80;;
14799;SDS011;7491;57.750;11.970;2022-07-04T09:52:31;7.30;;;1.13;;
14799;SDS011;7491;57.750;11.970;2022-07-04T09:55:09;0.82;;;0.65;;
14799;SDS011;7491;57.750;11.970;2022-07-04T09:57:37;2.75;;;1.02;;
14799;SDS011;7491;57.750;11.970;2022-07-04T10:00:16;2.08;;;1.15;;
14799;SDS011;7491;57.750;11.970;2022-07-04T10:02:44;4.20;;;1.10;;
14799;SDS011;7491;57.750;11.970;2022-07-04T10:05:11;2.47;;;1.10;;
14799;SDS011;7491;57.750;11.970;2022-07-04T10:07:38;3.08;;;0.80;;
14799;SDS011;7491;57.750;11.970;2022-07-04T10:10:25;5.53;;;1.27;;
14799;SDS011;7491;57.750;11.970;2022-07-04T10:13:01;4.25;;;1.33;;
14799;SDS011;7491;57.750;11.970;2022-07-04T10:15:29;2.45;;;0.93;;
14799;SDS011;7491;57.750;11.970;2022-07-04T10:17:57;5.10;;;1.10;;
14799;SDS011;7491;57.750;11.970;2022-07-04T10:20:24;1.75;;;0.90;;
14799;SDS011;7491;57.750;11.970;2022-07-04T10:22:51;4.05;;;0.80;;
14799;SDS011;7491;57.750;11.970;2022-07-04T10:25:18;2.60;;;0.75;;
14799;SDS011;7491;57.750;11.970;2022-07-04T10:27:45;2.35;;;0.80;;
14799;SDS011;7491;57.750;11.970;2022-07-04T10:30:16;1.15;;;0.70;;
14799;SDS011;7491;57.750;11.970;2022-07-04T10:32:48;2.70;;;0.70;;
14799;SDS011;7491;57.750;11.970;2022-07-04T10:35:17;2.35;;;0.73;;
14799;SDS011;7491;57.750;11.970;2022-07-04T10:38:06;1.35;;;0.90;;
14799;SDS011;7491;57.750;11.970;2022-07-04T10:40:43;1.80;;;0.93;;
14799;SDS011;7491;57.750;11.970;2022-07-04T10:46:29;2.63;;;1.10;;
14799;SDS011;7491;57.750;11.970;2022-07-04T10:49:01;2.97;;;1.08;;
14799;SDS011;7491;57.750;11.970;2022-07-04T10:54:15;1.73;;;1.02;;
14799;SDS011;7491;57.750;11.970;2022-07-04T10:56:44;1.17;;;0.80;;
14799;SDS011;7491;57.750;11.970;2022-07-04T10:59:17;4.60;;;1.10;;
14799;SDS011;7491;57.750;11.970;2022-07-04T11:01:47;2.65;;;1.25;;
14799;SDS011;7491;57.750;11.970;2022-07-04T11:10:23;2.00;;;1.05;;
14799;SDS011;7491;57.750;11.970;2022-07-04T11:13:07;8.18;;;1.40;;
14799;SDS011;7491;57.750;11.970;2022-07-04T11:15:59;2.15;;;1.00;;
14799;SDS011;7491;57.750;11.970;2022-07-04T11:18:29;3.72;;;1.10;;
14799;SDS011;7491;57.750;11.970;2022-07-04T11:20:56;3.08;;;0.95;;
14799;SDS011;7491;57.750;11.970;2022-07-04T11:23:23;1.90;;;0.90;;
14799;SDS011;7491;57.750;11.970;2022-07-04T11:25:50;1.00;;;0.80;;
14799;SDS011;7491;57.750;11.970;2022-07-04T11:28:20;2.47;;;0.90;;
14799;SDS011;7491;57.750;11.970;2022-07-04T11:30:48;2.05;;;0.90;;
14799;SDS011;7491;57.750;11.970;2022-07-04T11:33:16;3.55;;;1.10;;
14799;SDS011;7491;57.750;11.970;2022-07-04T11:35:46;3.65;;;1.02;;
14799;SDS011;7491;57.750;11.970;2022-07-04T11:38:50;5.10;;;1.83;;
14799;SDS011;7491;57.750;11.970;2022-07-04T11:41:19;3.92;;;1.00;;
14799;SDS011;7491;57.750;11.970;2022-07-04T11:44:06;3.50;;;1.00;;
14799;SDS011;7491;57.750;11.970;2022-07-04T11:47:00;4.50;;;1.33;;
14799;SDS011;7491;57.750;11.970;2022-07-04T11:49:31;2.58;;;1.10;;
14799;SDS011;7491;57.750;11.970;2022-07-04T11:51:59;3.80;;;1.33;;
14799;SDS011;7491;57.750;11.970;2022-07-04T11:54:26;4.65;;;1.17;;
14799;SDS011;7491;57.750;11.970;2022-07-04T11:57:07;3.85;;;1.55;;
14799;SDS011;7491;57.750;11.970;2022-07-04T11:59:36;2.53;;;0.85;;
14799;SDS011;7491;57.750;11.970;2022-07-04T12:02:13;2.28;;;0.90;;
14799;SDS011;7491;57.750;11.970;2022-07-04T12:04:42;2.05;;;0.73;;
14799;SDS011;7491;57.750;11.970;2022-07-04T12:07:11;2.80;;;0.82;;
14799;SDS011;7491;57.750;11.970;2022-07-04T12:09:39;2.83;;;1.00;;
14799;SDS011;7491;57.750;11.970;2022-07-04T12:12:06;4.47;;;0.70;;
14799;SDS011;7491;57.750;11.970;2022-07-04T12:14:34;1.63;;;0.65;;
14799;SDS011;7491;57.750;11.970;2022-07-04T12:17:10;1.55;;;0.73;;
14799;SDS011;7491;57.750;11.970;2022-07-04T12:19:53;2.70;;;0.90;;
14799;SDS011;7491;57.750;11.970;2022-07-04T12:25:19;1.88;;;0.60;;
14799;SDS011;7491;57.750;11.970;2022-07-04T12:27:51;1.67;;;0.80;;
14799;SDS011;7491;57.750;11.970;2022-07-04T12:30:19;2.92;;;0.70;;
14799;SDS011;7491;57.750;11.970;2022-07-04T12:32:47;4.18;;;0.82;;
14799;SDS011;7491;57.750;11.970;2022-07-04T12:38:06;2.25;;;0.88;;
14799;SDS011;7491;57.750;11.970;2022-07-04T12:40:37;1.38;;;0.63;;
14799;SDS011;7491;57.750;11.970;2022-07-04T12:43:16;1.23;;;0.63;;
14799;SDS011;7491;57.750;11.970;2022-07-04T12:45:44;0.77;;;0.52;;
14799;SDS011;7491;57.750;11.970;2022-07-04T12:48:16;1.75;;;0.95;;
14799;SDS011;7491;57.750;11.970;2022-07-04T12:50:44;2.03;;;0.50;;
14799;SDS011;7491;57.750;11.970;2022-07-04T12:53:12;1.95;;;0.65;;
14799;SDS011;7491;57.750;11.970;2022-07-04T12:55:40;6.57;;;0.90;;
14799;SDS011;7491;57.750;11.970;2022-07-04T12:58:07;2.92;;;0.60;;
14799;SDS011;7491;57.750;11.970;2022-07-04T13:00:35;2.75;;;0.82;;
14799;SDS011;7491;57.750;11.970;2022-07-04T13:03:02;5.20;;;0.70;;
14799;SDS011;7491;57.750;11.970;2022-07-04T13:05:29;2.25;;;0.90;;
14799;SDS011;7491;57.750;11.970;2022-07-04T13:07:56;2.55;;;0.80;;
14799;SDS011;7491;57.750;11.970;2022-07-04T13:10:24;3.00;;;1.00;;
14799;SDS011;7491;57.750;11.970;2022-07-04T13:12:51;2.55;;;0.90;;
14799;SDS011;7491;57.750;11.970;2022-07-04T13:15:18;3.10;;;1.15;;
14799;SDS011;7491;57.750;11.970;2022-07-04T13:17:45;0.63;;;0.40;;
14799;SDS011;7491;57.750;11.970;2022-07-04T13:20:11;1.45;;;0.90;;
14799;SDS011;7491;57.750;11.970;2022-07-04T13:22:38;1.95;;;1.00;;
14799;SDS011;7491;57.750;11.970;2022-07-04T13:25:05;1.30;;;0.90;;
14799;SDS011;7491;57.750;11.970;2022-07-04T13:27:34;2.20;;;0.80;;
14799;SDS011;7491;57.750;11.970;2022-07-04T13:30:13;1.65;;;0.70;;
14799;SDS011;7491;57.750;11.970;2022-07-04T13:32:54;1.60;;;0.75;;
14799;SDS011;7491;57.750;11.970;2022-07-04T13:35:42;1.63;;;0.80;;
14799;SDS011;7491;57.750;11.970;2022-07-04T13:38:11;2.00;;;0.80;;
14799;SDS011;7491;57.750;11.970;2022-07-04T13:40:41;2.58;;;0.90;;
14799;SDS011;7491;57.750;11.970;2022-07-04T13:43:10;1.10;;;0.80;;
14799;SDS011;7491;57.750;11.970;2022-07-04T13:45:38;2.10;;;0.65;;
14799;SDS011;7491;57.750;11.970;2022-07-04T13:48:07;2.47;;;0.65;;
14799;SDS011;7491;57.750;11.970;2022-07-04T13:50:34;2.20;;;0.73;;
14799;SDS011;7491;57.750;11.970;2022-07-04T13:53:03;3.00;;;0.63;;
14799;SDS011;7491;57.750;11.970;2022-07-04T13:55:30;1.08;;;0.60;;
14799;SDS011;7491;57.750;11.970;2022-07-04T13:57:59;1.25;;;0.60;;
14799;SDS011;7491;57.750;11.970;2022-07-04T14:00:33;1.48;;;0.57;;
14799;SDS011;7491;57.750;11.970;2022-07-04T14:03:01;0.60;;;0.60;;
14799;SDS011;7491;57.750;11.970;2022-07-04T14:05:29;1.40;;;0.55;;
14799;SDS011;7491;57.750;11.970;2022-07-04T14:07:56;1.83;;;0.68;;
14799;SDS011;7491;57.750;11.970;2022-07-04T14:10:24;2.17;;;0.68;;
14799;SDS011;7491;57.750;11.970;2022-07-04T14:12:52;1.23;;;0.63;;
14799;SDS011;7491;57.750;11.970;2022-07-04T14:15:19;2.00;;;0.75;;
14799;SDS011;7491;57.750;11.970;2022-07-04T14:17:47;1.67;;;0.90;;
14799;SDS011;7491;57.750;11.970;2022-07-04T14:20:15;1.48;;;0.85;;
14799;SDS011;7491;57.750;11.970;2022-07-04T14:22:43;1.83;;;0.73;;
14799;SDS011;7491;57.750;11.970;2022-07-04T14:25:11;2.47;;;0.60;;
14799;SDS011;7491;57.750;11.970;2022-07-04T14:27:38;2.60;;;0.70;;
14799;SDS011;7491;57.750;11.970;2022-07-04T14:30:05;1.88;;;0.70;;
14799;SDS011;7491;57.750;11.970;2022-07-04T14:32:33;2.25;;;0.75;;
14799;SDS011;7491;57.750;11.970;2022-07-04T14:35:01;1.35;;;0.70;;
14799;SDS011;7491;57.750;11.970;2022-07-04T14:37:28;1.88;;;0.60;;
14799;SDS011;7491;57.750;11.970;2022-07-04T14:39:55;1.80;;;0.82;;
14799;SDS011;7491;57.750;11.970;2022-07-04T14:42:21;0.40;;;0.40;;
14799;SDS011;7491;57.750;11.970;2022-07-04T14:44:48;1.88;;;0.60;;
14799;SDS011;7491;57.750;11.970;2022-07-04T14:47:15;2.97;;;0.60;;
14799;SDS011;7491;57.750;11.970;2022-07-04T14:49:42;2.38;;;0.60;;
14799;SDS011;7491;57.750;11.970;2022-07-04T14:52:11;2.17;;;0.68;;
14799;SDS011;7491;57.750;11.970;2022-07-04T14:54:38;3.15;;;0.65;;
14799;SDS011;7491;57.750;11.970;2022-07-04T14:57:05;1.73;;;0.70;;
14799;SDS011;7491;57.750;11.970;2022-07-04T14:59:33;2.38;;;0.90;;
14799;SDS011;7491;57.750;11.970;2022-07-04T15:02:01;4.68;;;1.10;;
14799;SDS011;7491;57.750;11.970;2022-07-04T15:04:28;2.15;;;0.70;;
14799;SDS011;7491;57.750;11.970;2022-07-04T15:09:44;3.95;;;0.70;;
14799;SDS011;7491;57.750;11.970;2022-07-04T15:12:44;4.10;;;1.05;;
14799;SDS011;7491;57.750;11.970;2022-07-04T15:15:16;1.42;;;0.80;;
14799;SDS011;7491;57.750;11.970;2022-07-04T15:18:03;2.00;;;0.95;;
14799;SDS011;7491;57.750;11.970;2022-07-04T15:20:30;1.90;;;0.98;;
14799;SDS011;7491;57.750;11.970;2022-07-04T15:23:16;2.90;;;1.10;;